createdAt,value
2017-09-17T00:00:21.690Z,5.10
2017-09-17T00:05:23.887Z,4.53
2017-09-17T00:10:26.607Z,5.20
2017-09-17T00:15:28.626Z,4.30
2017-09-17T00:20:31.044Z,5.13
2017-09-17T00:25:33.478Z,4.30
2017-09-17T00:30:35.526Z,4.30
2017-09-17T00:35:38.002Z,5.20
2017-09-17T00:40:40.063Z,4.37
2017-09-17T00:45:42.069Z,4.67
2017-09-17T00:50:45.176Z,4.37
2017-09-17T00:55:47.217Z,4.50
2017-09-17T01:00:49.268Z,5.10
2017-09-17T01:05:53.264Z,5.17
2017-09-17T01:10:56.085Z,4.27
2017-09-17T01:15:58.223Z,4.47
2017-09-17T01:21:01.039Z,4.60
2017-09-17T01:26:02.998Z,4.50
2017-09-17T01:31:05.014Z,5.00
2017-09-17T01:36:07.017Z,5.10
2017-09-17T01:41:09.715Z,4.20
2017-09-17T01:46:11.676Z,5.10
2017-09-17T01:51:13.646Z,5.13
2017-09-17T01:56:15.698Z,5.03
2017-09-17T02:01:17.704Z,4.03
2017-09-17T02:06:19.762Z,4.57
2017-09-17T02:11:21.815Z,4.77
2017-09-17T02:16:23.793Z,4.63
2017-09-17T02:21:25.800Z,4.63
2017-09-17T02:26:27.884Z,4.77
2017-09-17T02:31:29.865Z,4.97
2017-09-17T02:36:31.974Z,4.60
2017-09-17T02:41:33.999Z,4.43
2017-09-17T02:46:35.989Z,4.97
2017-09-17T02:51:37.972Z,4.43
2017-09-17T02:56:39.952Z,4.57
2017-09-17T03:01:41.919Z,4.40
2017-09-17T03:06:43.887Z,4.90
2017-09-17T03:11:45.916Z,3.90
2017-09-17T03:16:47.978Z,4.70
2017-09-17T03:21:49.966Z,3.80
2017-09-17T03:26:52.638Z,4.10
2017-09-17T03:31:55.419Z,4.40
2017-09-17T03:36:57.450Z,4.87
2017-09-17T03:41:59.507Z,5.37
2017-09-17T03:47:01.552Z,4.50
2017-09-17T03:52:03.566Z,4.80
2017-09-17T03:57:05.540Z,4.60
2017-09-17T04:02:08.360Z,4.03
2017-09-17T04:07:10.376Z,4.40
2017-09-17T04:12:12.379Z,4.40
2017-09-17T04:17:14.427Z,3.90
2017-09-17T04:22:16.509Z,4.60
2017-09-17T04:27:18.533Z,4.47
2017-09-17T04:32:20.515Z,4.97
2017-09-17T04:37:22.786Z,4.83
2017-09-17T04:42:24.781Z,4.70
2017-09-17T04:47:26.798Z,5.60
2017-09-17T04:52:28.821Z,4.50
2017-09-17T04:57:30.820Z,4.50
2017-09-17T05:02:32.827Z,4.60
2017-09-17T05:07:34.820Z,5.80
2017-09-17T05:12:36.879Z,4.73
2017-09-17T05:17:38.907Z,4.57
2017-09-17T05:22:40.873Z,4.93
2017-09-17T05:27:42.890Z,4.73
2017-09-17T05:32:44.859Z,3.83
2017-09-17T05:37:47.020Z,4.87
2017-09-17T05:42:49.745Z,4.50
2017-09-17T05:47:51.724Z,5.37
2017-09-17T05:52:53.720Z,5.20
2017-09-17T05:57:55.702Z,5.40
2017-09-17T06:02:57.662Z,5.67
2017-09-17T06:07:59.682Z,10.27
2017-09-17T06:13:01.653Z,5.90
2017-09-17T06:18:03.933Z,5.80
2017-09-17T06:23:06.014Z,5.40
2017-09-17T06:28:11.077Z,5.37
2017-09-17T06:33:13.028Z,5.53
2017-09-17T06:38:15.134Z,5.50
2017-09-17T06:43:17.202Z,4.90
2017-09-17T06:48:19.313Z,5.60
2017-09-17T06:53:22.051Z,4.50
2017-09-17T06:58:24.181Z,4.77
2017-09-17T07:03:26.208Z,5.47
2017-09-17T07:08:29.420Z,5.00
2017-09-17T07:13:31.628Z,4.77
2017-09-17T07:18:33.640Z,5.27
2017-09-17T07:23:35.762Z,5.57
2017-09-17T07:28:37.721Z,5.10
2017-09-17T07:33:40.245Z,5.87
2017-09-17T07:38:42.384Z,5.78
2017-09-17T07:43:53.069Z,6.27
2017-09-17T07:48:56.439Z,6.00
2017-09-17T07:53:58.616Z,4.93
2017-09-17T07:59:01.029Z,4.43
2017-09-17T08:04:03.611Z,4.47
2017-09-17T08:09:05.850Z,5.47
2017-09-17T08:14:08.443Z,4.73
2017-09-17T08:19:10.712Z,5.40
2017-09-17T08:24:12.802Z,4.50
2017-09-17T08:29:14.804Z,5.13
2017-09-17T08:34:16.864Z,4.70
2017-09-17T08:39:18.860Z,5.37
2017-09-17T08:44:20.857Z,4.60
2017-09-17T08:49:22.859Z,10.30
2017-09-17T08:54:24.857Z,4.40
2017-09-17T08:59:26.799Z,3.83
2017-09-17T09:04:28.841Z,4.90
2017-09-17T09:09:30.851Z,4.30
2017-09-17T09:14:32.828Z,4.83
2017-09-17T09:19:35.539Z,4.50
2017-09-17T09:24:37.631Z,4.00
2017-09-17T09:29:39.601Z,3.77
2017-09-17T09:34:41.570Z,4.70
2017-09-17T09:39:43.521Z,4.40
2017-09-17T09:44:51.543Z,4.10
2017-09-17T09:49:53.536Z,4.37
2017-09-17T09:54:55.480Z,4.77
2017-09-17T09:59:57.490Z,4.80
2017-09-17T10:04:59.438Z,4.40
2017-09-17T10:10:01.376Z,3.93
2017-09-17T10:15:03.419Z,3.90
2017-09-17T10:20:07.430Z,3.70
2017-09-17T10:25:09.485Z,3.70
2017-09-17T10:30:12.129Z,3.40
2017-09-17T10:35:14.080Z,3.97
2017-09-17T10:40:16.159Z,3.20
2017-09-17T10:45:18.092Z,2.03
2017-09-17T10:50:20.073Z,2.40
2017-09-17T10:55:22.154Z,2.23
2017-09-17T11:00:24.852Z,2.10
2017-09-17T11:05:26.964Z,2.40
2017-09-17T11:10:30.008Z,2.10
2017-09-17T11:15:31.980Z,3.10
2017-09-17T11:20:34.696Z,1.93
2017-09-17T11:25:36.668Z,1.60
2017-09-17T11:30:38.599Z,1.90
2017-09-17T11:35:40.535Z,1.70
2017-09-17T11:40:42.477Z,2.03
2017-09-17T11:45:44.551Z,1.80
2017-09-17T11:50:46.692Z,2.13
2017-09-17T11:55:48.690Z,2.40
2017-09-17T12:00:51.393Z,1.90
2017-09-17T12:05:53.373Z,2.53
2017-09-17T12:10:55.372Z,1.63
2017-09-17T12:15:58.114Z,2.13
2017-09-17T12:21:00.265Z,1.50
2017-09-17T12:26:02.245Z,2.10
2017-09-17T12:31:04.289Z,1.67
2017-09-17T12:36:06.359Z,1.63
2017-09-17T12:41:08.434Z,2.40
2017-09-17T12:46:14.156Z,2.03
2017-09-17T12:51:16.124Z,1.77
2017-09-17T12:56:18.839Z,2.40
2017-09-17T13:01:20.923Z,1.20
2017-09-17T13:06:22.887Z,1.60
2017-09-17T13:11:24.964Z,1.83
2017-09-17T13:16:27.234Z,1.80
2017-09-17T13:21:29.948Z,2.03
2017-09-17T13:26:32.013Z,1.77
2017-09-17T13:31:34.753Z,1.70
2017-09-17T13:36:36.811Z,2.20
2017-09-17T13:41:38.802Z,1.90
2017-09-17T13:46:40.813Z,1.50
2017-09-17T13:51:42.814Z,2.20
2017-09-17T13:56:44.835Z,2.03
2017-09-17T14:02:04.672Z,2.20
2017-09-17T14:07:11.274Z,2.17
2017-09-17T14:12:14.043Z,1.80
2017-09-17T14:17:16.787Z,1.70
2017-09-17T14:22:20.075Z,1.60
2017-09-17T14:27:22.240Z,1.23
2017-09-17T14:32:24.669Z,1.30
2017-09-17T14:37:26.831Z,1.70
2017-09-17T14:42:31.303Z,1.60
2017-09-17T14:47:33.464Z,1.30
2017-09-17T14:52:35.507Z,1.53
2017-09-17T14:57:37.465Z,1.33
2017-09-17T15:02:39.592Z,1.70
2017-09-17T15:07:41.544Z,1.90
2017-09-17T15:12:44.687Z,1.40
2017-09-17T15:17:47.417Z,2.67
2017-09-17T15:22:49.411Z,3.53
2017-09-17T15:27:51.402Z,1.60
2017-09-17T15:32:53.427Z,1.13
2017-09-17T15:37:55.435Z,1.00
2017-09-17T15:42:57.392Z,1.30
2017-09-17T15:47:59.460Z,1.13
2017-09-17T15:53:01.443Z,1.60
2017-09-17T15:58:03.431Z,1.33
2017-09-17T16:03:06.195Z,1.40
2017-09-17T16:08:08.273Z,1.50
2017-09-17T16:13:10.252Z,1.40
2017-09-17T16:18:12.225Z,1.60
2017-09-17T16:23:14.269Z,1.33
2017-09-17T16:28:16.215Z,1.37
2017-09-17T16:33:18.930Z,1.87
2017-09-17T16:38:20.980Z,1.90
2017-09-17T16:43:23.461Z,2.03
2017-09-17T16:48:25.894Z,2.30
2017-09-17T16:53:27.931Z,3.40
2017-09-17T16:58:29.919Z,3.83
2017-09-17T17:03:32.273Z,4.20
2017-09-17T17:08:34.814Z,4.23
2017-09-17T17:13:36.957Z,3.53
2017-09-17T17:18:40.235Z,4.77
2017-09-17T17:23:45.403Z,4.53
2017-09-17T17:28:48.960Z,4.40
2017-09-17T17:33:51.717Z,3.80
2017-09-17T17:38:56.131Z,3.90
2017-09-17T17:43:58.528Z,3.57
2017-09-17T17:49:00.639Z,4.10
2017-09-17T17:54:05.725Z,4.73
2017-09-17T17:59:08.497Z,3.80
2017-09-17T18:04:11.421Z,3.90
2017-09-17T18:09:16.158Z,3.90
2017-09-17T18:14:19.430Z,3.90
2017-09-17T18:19:21.544Z,4.70
2017-09-17T18:24:23.515Z,4.27
2017-09-17T18:29:25.598Z,5.53
2017-09-17T18:34:27.691Z,5.10
2017-09-17T18:39:31.579Z,5.50
2017-09-17T18:44:36.274Z,5.73
2017-09-17T18:49:38.948Z,5.10
2017-09-17T18:54:41.275Z,5.10
2017-09-17T18:59:43.297Z,5.30
2017-09-17T19:04:45.528Z,4.33
2017-09-17T19:09:47.600Z,4.73
2017-09-17T19:14:49.633Z,4.30
2017-09-17T19:19:51.618Z,5.00
2017-09-17T19:24:55.743Z,4.80
2017-09-17T19:29:57.909Z,5.27
2017-09-17T19:35:00.225Z,5.43
2017-09-17T19:40:03.924Z,5.03
2017-09-17T19:45:06.429Z,4.80
2017-09-17T19:50:08.942Z,5.00
2017-09-17T19:55:11.273Z,4.77
2017-09-17T20:00:13.288Z,5.37
2017-09-17T20:05:15.287Z,6.00
2017-09-17T20:10:17.326Z,5.97
2017-09-17T20:15:19.281Z,5.10
2017-09-17T20:20:21.322Z,5.80
2017-09-17T20:25:24.048Z,5.10
2017-09-17T20:30:26.034Z,5.40
2017-09-17T20:35:28.043Z,5.50
2017-09-17T20:40:30.027Z,7.27
2017-09-17T20:45:32.035Z,8.00
2017-09-17T20:50:34.024Z,7.47
2017-09-17T20:55:36.866Z,6.50
2017-09-17T21:00:38.838Z,7.90
2017-09-17T21:05:42.170Z,8.70
2017-09-17T21:10:44.149Z,8.23
2017-09-17T21:15:46.900Z,9.00
2017-09-17T21:20:48.935Z,8.27
2017-09-17T21:25:50.947Z,8.33
2017-09-17T21:30:52.959Z,10.80
2017-09-17T21:35:55.331Z,8.00
2017-09-17T21:40:58.186Z,8.10
2017-09-17T21:46:00.524Z,8.93
2017-09-17T21:51:02.886Z,9.90
2017-09-17T21:56:05.124Z,8.17
2017-09-17T22:01:07.219Z,7.87
2017-09-17T22:06:09.284Z,8.80
2017-09-17T22:11:12.037Z,8.67
2017-09-17T22:16:14.049Z,7.70
2017-09-17T22:21:16.059Z,8.33
2017-09-17T22:26:18.067Z,7.40
2017-09-17T22:31:20.079Z,7.60
2017-09-17T22:36:22.118Z,7.53
2017-09-17T22:41:24.127Z,8.07
2017-09-17T22:46:26.081Z,7.40
2017-09-17T22:51:28.792Z,7.93
2017-09-17T22:56:30.744Z,7.40
2017-09-17T23:01:32.739Z,7.67
2017-09-17T23:06:35.631Z,6.90
2017-09-17T23:11:37.633Z,6.90
2017-09-17T23:16:39.667Z,7.80
2017-09-17T23:21:41.652Z,7.87
2017-09-17T23:26:43.616Z,6.67
2017-09-17T23:31:45.606Z,6.77
2017-09-17T23:36:47.623Z,7.00
2017-09-17T23:41:49.627Z,7.50
2017-09-17T23:46:52.268Z,8.50
2017-09-17T23:51:54.908Z,7.13
2017-09-17T23:56:56.861Z,7.80
